sensor_id;sensor_type;location;lat;lon;timestamp;P1;durP1;ratioP1;P2;durP2;ratioP2
8803;SDS011;4438;50.890;4.726;2023-11-19T00:00:52;3.07;;;2.73;;
8803;SDS011;4438;50.890;4.726;2023-11-19T00:03:19;4.53;;;3.27;;
8803;SDS011;4438;50.890;4.726;2023-11-19T00:05:45;5.70;;;3.00;;
8803;SDS011;4438;50.890;4.726;2023-11-19T00:08:11;6.37;;;3.00;;
8803;SDS011;4438;50.890;4.726;2023-11-19T00:10:37;5.90;;;2.90;;
8803;SDS011;4438;50.890;4.726;2023-11-19T00:13:03;7.40;;;3.40;;
8803;SDS011;4438;50.890;4.726;2023-11-19T00:15:29;8.63;;;3.53;;
8803;SDS011;4438;50.890;4.726;2023-11-19T00:17:55;5.33;;;3.30;;
8803;SDS011;4438;50.890;4.726;2023-11-19T00:20:21;5.80;;;3.30;;
8803;SDS011;4438;50.890;4.726;2023-11-19T00:22:48;8.17;;;3.77;;
8803;SDS011;4438;50.890;4.726;2023-11-19T00:25:17;7.50;;;3.93;;
8803;SDS011;4438;50.890;4.726;2023-11-19T00:27:43;7.03;;;3.63;;
8803;SDS011;4438;50.890;4.726;2023-11-19T00:30:10;6.63;;;3.53;;
8803;SDS011;4438;50.890;4.726;2023-11-19T00:32:36;4.90;;;3.03;;
8803;SDS011;4438;50.890;4.726;2023-11-19T00:35:04;9.97;;;4.20;;
8803;SDS011;4438;50.890;4.726;2023-11-19T00:37:31;8.40;;;3.37;;
8803;SDS011;4438;50.890;4.726;2023-11-19T00:39:57;11.20;;;4.03;;
8803;SDS011;4438;50.890;4.726;2023-11-19T00:42:23;8.20;;;3.87;;
8803;SDS011;4438;50.890;4.726;2023-11-19T00:44:49;9.50;;;4.50;;
8803;SDS011;4438;50.890;4.726;2023-11-19T00:47:16;8.93;;;3.80;;
8803;SDS011;4438;50.890;4.726;2023-11-19T00:49:42;9.33;;;3.77;;
8803;SDS011;4438;50.890;4.726;2023-11-19T00:52:08;10.10;;;3.47;;
8803;SDS011;4438;50.890;4.726;2023-11-19T00:54:34;7.37;;;3.90;;
8803;SDS011;4438;50.890;4.726;2023-11-19T00:57:00;8.23;;;3.80;;
8803;SDS011;4438;50.890;4.726;2023-11-19T00:59:26;9.30;;;3.57;;
8803;SDS011;4438;50.890;4.726;2023-11-19T01:01:53;8.10;;;3.50;;
8803;SDS011;4438;50.890;4.726;2023-11-19T01:04:21;9.57;;;3.97;;
8803;SDS011;4438;50.890;4.726;2023-11-19T01:06:49;7.33;;;3.53;;
8803;SDS011;4438;50.890;4.726;2023-11-19T01:09:15;13.17;;;4.03;;
8803;SDS011;4438;50.890;4.726;2023-11-19T01:11:41;11.67;;;4.00;;
8803;SDS011;4438;50.890;4.726;2023-11-19T01:14:07;10.27;;;3.67;;
8803;SDS011;4438;50.890;4.726;2023-11-19T01:16:33;8.63;;;3.77;;
8803;SDS011;4438;50.890;4.726;2023-11-19T01:18:59;9.23;;;4.00;;
8803;SDS011;4438;50.890;4.726;2023-11-19T01:21:29;9.23;;;3.47;;
8803;SDS011;4438;50.890;4.726;2023-11-19T01:23:56;9.60;;;4.00;;
8803;SDS011;4438;50.890;4.726;2023-11-19T01:26:23;8.93;;;3.57;;
8803;SDS011;4438;50.890;4.726;2023-11-19T01:28:49;10.03;;;4.00;;
8803;SDS011;4438;50.890;4.726;2023-11-19T01:31:17;10.57;;;3.97;;
8803;SDS011;4438;50.890;4.726;2023-11-19T01:33:44;11.93;;;3.90;;
8803;SDS011;4438;50.890;4.726;2023-11-19T01:36:14;11.23;;;3.83;;
8803;SDS011;4438;50.890;4.726;2023-11-19T01:38:41;11.77;;;3.77;;
8803;SDS011;4438;50.890;4.726;2023-11-19T01:41:07;10.30;;;3.53;;
8803;SDS011;4438;50.890;4.726;2023-11-19T01:43:34;12.67;;;4.00;;
8803;SDS011;4438;50.890;4.726;2023-11-19T01:46:00;12.20;;;4.33;;
8803;SDS011;4438;50.890;4.726;2023-11-19T01:48:28;9.93;;;3.50;;
8803;SDS011;4438;50.890;4.726;2023-11-19T01:50:54;11.53;;;3.80;;
8803;SDS011;4438;50.890;4.726;2023-11-19T01:53:21;11.43;;;4.00;;
8803;SDS011;4438;50.890;4.726;2023-11-19T01:55:47;8.33;;;3.87;;
8803;SDS011;4438;50.890;4.726;2023-11-19T01:58:13;8.33;;;3.60;;
8803;SDS011;4438;50.890;4.726;2023-11-19T02:00:40;11.90;;;3.77;;
8803;SDS011;4438;50.890;4.726;2023-11-19T02:03:06;13.70;;;4.43;;
8803;SDS011;4438;50.890;4.726;2023-11-19T02:05:35;10.23;;;3.70;;
8803;SDS011;4438;50.890;4.726;2023-11-19T02:08:01;10.77;;;3.43;;
8803;SDS011;4438;50.890;4.726;2023-11-19T02:10:28;11.53;;;3.60;;
8803;SDS011;4438;50.890;4.726;2023-11-19T02:12:54;10.20;;;3.83;;
8803;SDS011;4438;50.890;4.726;2023-11-19T02:15:20;10.90;;;3.50;;
8803;SDS011;4438;50.890;4.726;2023-11-19T02:17:50;11.03;;;3.43;;
8803;SDS011;4438;50.890;4.726;2023-11-19T02:20:16;10.97;;;4.00;;
8803;SDS011;4438;50.890;4.726;2023-11-19T02:22:45;11.00;;;3.57;;
8803;SDS011;4438;50.890;4.726;2023-11-19T02:25:15;10.33;;;3.83;;
8803;SDS011;4438;50.890;4.726;2023-11-19T02:27:56;11.37;;;4.17;;
8803;SDS011;4438;50.890;4.726;2023-11-19T02:30:23;12.60;;;3.80;;
8803;SDS011;4438;50.890;4.726;2023-11-19T02:32:53;11.17;;;4.40;;
8803;SDS011;4438;50.890;4.726;2023-11-19T02:35:22;13.67;;;3.97;;
8803;SDS011;4438;50.890;4.726;2023-11-19T02:37:48;12.70;;;4.17;;
8803;SDS011;4438;50.890;4.726;2023-11-19T02:40:14;11.70;;;4.47;;
8803;SDS011;4438;50.890;4.726;2023-11-19T02:42:40;15.07;;;4.53;;
8803;SDS011;4438;50.890;4.726;2023-11-19T02:45:07;12.30;;;4.63;;
8803;SDS011;4438;50.890;4.726;2023-11-19T02:47:38;14.27;;;3.83;;
8803;SDS011;4438;50.890;4.726;2023-11-19T02:50:05;12.90;;;4.47;;
8803;SDS011;4438;50.890;4.726;2023-11-19T02:52:38;13.10;;;3.87;;
8803;SDS011;4438;50.890;4.726;2023-11-19T02:55:04;11.00;;;4.10;;
8803;SDS011;4438;50.890;4.726;2023-11-19T02:57:35;14.10;;;3.73;;
8803;SDS011;4438;50.890;4.726;2023-11-19T03:00:01;13.77;;;4.20;;
8803;SDS011;4438;50.890;4.726;2023-11-19T03:02:38;13.13;;;3.97;;
8803;SDS011;4438;50.890;4.726;2023-11-19T03:05:09;13.07;;;4.23;;
8803;SDS011;4438;50.890;4.726;2023-11-19T03:07:36;14.53;;;4.27;;
8803;SDS011;4438;50.890;4.726;2023-11-19T03:10:02;17.07;;;4.53;;
8803;SDS011;4438;50.890;4.726;2023-11-19T03:12:30;15.00;;;4.27;;
8803;SDS011;4438;50.890;4.726;2023-11-19T03:14:57;13.77;;;4.93;;
8803;SDS011;4438;50.890;4.726;2023-11-19T03:17:23;15.13;;;4.37;;
8803;SDS011;4438;50.890;4.726;2023-11-19T03:19:49;12.77;;;4.10;;
8803;SDS011;4438;50.890;4.726;2023-11-19T03:22:16;13.30;;;4.27;;
8803;SDS011;4438;50.890;4.726;2023-11-19T03:24:42;13.03;;;4.27;;
8803;SDS011;4438;50.890;4.726;2023-11-19T03:27:08;11.03;;;3.97;;
8803;SDS011;4438;50.890;4.726;2023-11-19T03:29:35;13.20;;;3.93;;
8803;SDS011;4438;50.890;4.726;2023-11-19T03:32:01;12.20;;;4.40;;
8803;SDS011;4438;50.890;4.726;2023-11-19T03:34:27;15.17;;;4.00;;
8803;SDS011;4438;50.890;4.726;2023-11-19T03:36:53;17.10;;;4.03;;
8803;SDS011;4438;50.890;4.726;2023-11-19T03:39:19;14.47;;;4.00;;
8803;SDS011;4438;50.890;4.726;2023-11-19T03:41:45;14.00;;;4.07;;
8803;SDS011;4438;50.890;4.726;2023-11-19T03:44:14;14.60;;;4.53;;
8803;SDS011;4438;50.890;4.726;2023-11-19T03:46:40;11.83;;;4.13;;
8803;SDS011;4438;50.890;4.726;2023-11-19T03:49:06;15.10;;;4.67;;
8803;SDS011;4438;50.890;4.726;2023-11-19T03:51:32;14.93;;;4.40;;
8803;SDS011;4438;50.890;4.726;2023-11-19T03:53:59;13.33;;;4.37;;
8803;SDS011;4438;50.890;4.726;2023-11-19T03:56:26;11.47;;;4.10;;
8803;SDS011;4438;50.890;4.726;2023-11-19T03:58:52;12.43;;;4.70;;
8803;SDS011;4438;50.890;4.726;2023-11-19T04:01:19;14.40;;;4.63;;
8803;SDS011;4438;50.890;4.726;2023-11-19T04:03:45;12.67;;;3.73;;
8803;SDS011;4438;50.890;4.726;2023-11-19T04:06:11;14.20;;;4.67;;
8803;SDS011;4438;50.890;4.726;2023-11-19T04:08:37;11.07;;;4.40;;
8803;SDS011;4438;50.890;4.726;2023-11-19T04:11:04;17.53;;;4.67;;
8803;SDS011;4438;50.890;4.726;2023-11-19T04:13:30;14.17;;;4.50;;
8803;SDS011;4438;50.890;4.726;2023-11-19T04:15:56;12.40;;;3.77;;
8803;SDS011;4438;50.890;4.726;2023-11-19T04:18:22;12.23;;;4.00;;
8803;SDS011;4438;50.890;4.726;2023-11-19T04:20:48;10.13;;;3.63;;
8803;SDS011;4438;50.890;4.726;2023-11-19T04:23:15;17.43;;;4.73;;
8803;SDS011;4438;50.890;4.726;2023-11-19T04:25:42;20.40;;;4.73;;
8803;SDS011;4438;50.890;4.726;2023-11-19T04:28:08;14.07;;;4.23;;
8803;SDS011;4438;50.890;4.726;2023-11-19T04:30:34;13.33;;;4.57;;
8803;SDS011;4438;50.890;4.726;2023-11-19T04:33:00;12.90;;;4.40;;
8803;SDS011;4438;50.890;4.726;2023-11-19T04:35:26;15.97;;;4.50;;
8803;SDS011;4438;50.890;4.726;2023-11-19T04:37:53;12.17;;;3.93;;
8803;SDS011;4438;50.890;4.726;2023-11-19T04:40:22;15.27;;;4.53;;
8803;SDS011;4438;50.890;4.726;2023-11-19T04:42:48;17.43;;;4.43;;
8803;SDS011;4438;50.890;4.726;2023-11-19T04:45:14;13.23;;;4.47;;
8803;SDS011;4438;50.890;4.726;2023-11-19T04:47:41;13.03;;;4.00;;
8803;SDS011;4438;50.890;4.726;2023-11-19T04:50:07;13.90;;;4.40;;
8803;SDS011;4438;50.890;4.726;2023-11-19T04:52:37;15.43;;;4.97;;
8803;SDS011;4438;50.890;4.726;2023-11-19T04:55:07;14.63;;;4.83;;
8803;SDS011;4438;50.890;4.726;2023-11-19T04:57:36;19.60;;;4.93;;
8803;SDS011;4438;50.890;4.726;2023-11-19T05:00:03;15.43;;;4.40;;
8803;SDS011;4438;50.890;4.726;2023-11-19T05:02:30;13.67;;;4.40;;
8803;SDS011;4438;50.890;4.726;2023-11-19T05:04:56;18.80;;;4.83;;
8803;SDS011;4438;50.890;4.726;2023-11-19T05:07:22;17.77;;;4.57;;
8803;SDS011;4438;50.890;4.726;2023-11-19T05:09:48;19.90;;;5.13;;
8803;SDS011;4438;50.890;4.726;2023-11-19T05:12:14;17.60;;;4.97;;
8803;SDS011;4438;50.890;4.726;2023-11-19T05:14:40;19.93;;;5.33;;
8803;SDS011;4438;50.890;4.726;2023-11-19T05:17:14;18.23;;;5.13;;
8803;SDS011;4438;50.890;4.726;2023-11-19T05:19:40;19.50;;;5.67;;
8803;SDS011;4438;50.890;4.726;2023-11-19T05:22:06;17.50;;;5.10;;
8803;SDS011;4438;50.890;4.726;2023-11-19T05:24:32;20.93;;;5.40;;
8803;SDS011;4438;50.890;4.726;2023-11-19T05:26:59;17.33;;;4.87;;
8803;SDS011;4438;50.890;4.726;2023-11-19T05:29:25;18.50;;;4.63;;
8803;SDS011;4438;50.890;4.726;2023-11-19T05:31:51;15.27;;;4.73;;
8803;SDS011;4438;50.890;4.726;2023-11-19T05:34:17;17.13;;;4.70;;
8803;SDS011;4438;50.890;4.726;2023-11-19T05:36:43;17.70;;;4.47;;
8803;SDS011;4438;50.890;4.726;2023-11-19T05:39:09;17.73;;;4.27;;
8803;SDS011;4438;50.890;4.726;2023-11-19T05:41:36;19.93;;;5.07;;
8803;SDS011;4438;50.890;4.726;2023-11-19T05:44:02;18.67;;;5.30;;
8803;SDS011;4438;50.890;4.726;2023-11-19T05:46:28;14.87;;;4.83;;
8803;SDS011;4438;50.890;4.726;2023-11-19T05:48:54;17.57;;;4.93;;
8803;SDS011;4438;50.890;4.726;2023-11-19T05:51:20;17.60;;;4.60;;
8803;SDS011;4438;50.890;4.726;2023-11-19T05:53:49;18.40;;;5.27;;
8803;SDS011;4438;50.890;4.726;2023-11-19T05:56:15;19.23;;;4.60;;
8803;SDS011;4438;50.890;4.726;2023-11-19T05:58:46;18.67;;;5.00;;
8803;SDS011;4438;50.890;4.726;2023-11-19T06:01:14;19.73;;;5.73;;
8803;SDS011;4438;50.890;4.726;2023-11-19T06:03:40;17.17;;;5.20;;
8803;SDS011;4438;50.890;4.726;2023-11-19T06:06:08;19.80;;;5.87;;
8803;SDS011;4438;50.890;4.726;2023-11-19T06:08:34;15.00;;;5.10;;
8803;SDS011;4438;50.890;4.726;2023-11-19T06:11:01;17.57;;;5.13;;
8803;SDS011;4438;50.890;4.726;2023-11-19T06:13:28;19.07;;;5.87;;
8803;SDS011;4438;50.890;4.726;2023-11-19T06:15:55;21.03;;;5.40;;
8803;SDS011;4438;50.890;4.726;2023-11-19T06:18:22;18.30;;;5.17;;
8803;SDS011;4438;50.890;4.726;2023-11-19T06:20:48;19.17;;;5.77;;
8803;SDS011;4438;50.890;4.726;2023-11-19T06:23:14;20.17;;;5.73;;
8803;SDS011;4438;50.890;4.726;2023-11-19T06:25:41;20.93;;;5.77;;
8803;SDS011;4438;50.890;4.726;2023-11-19T06:28:07;20.07;;;5.33;;
8803;SDS011;4438;50.890;4.726;2023-11-19T06:30:33;20.33;;;5.73;;
8803;SDS011;4438;50.890;4.726;2023-11-19T06:33:01;17.30;;;5.67;;
8803;SDS011;4438;50.890;4.726;2023-11-19T06:35:28;14.80;;;4.90;;
8803;SDS011;4438;50.890;4.726;2023-11-19T06:38:01;20.30;;;6.00;;
8803;SDS011;4438;50.890;4.726;2023-11-19T06:40:27;22.80;;;5.93;;
8803;SDS011;4438;50.890;4.726;2023-11-19T06:42:54;23.30;;;6.43;;
8803;SDS011;4438;50.890;4.726;2023-11-19T06:45:21;17.63;;;4.97;;
8803;SDS011;4438;50.890;4.726;2023-11-19T06:47:47;18.37;;;5.27;;
8803;SDS011;4438;50.890;4.726;2023-11-19T06:50:13;19.30;;;5.43;;
8803;SDS011;4438;50.890;4.726;2023-11-19T06:52:40;17.20;;;5.47;;
8803;SDS011;4438;50.890;4.726;2023-11-19T06:55:06;15.13;;;3.93;;
8803;SDS011;4438;50.890;4.726;2023-11-19T06:57:32;14.77;;;4.43;;
8803;SDS011;4438;50.890;4.726;2023-11-19T06:59:59;16.77;;;4.90;;
8803;SDS011;4438;50.890;4.726;2023-11-19T07:02:25;17.23;;;4.67;;
8803;SDS011;4438;50.890;4.726;2023-11-19T07:04:51;23.27;;;5.83;;
8803;SDS011;4438;50.890;4.726;2023-11-19T07:07:17;21.87;;;5.60;;
8803;SDS011;4438;50.890;4.726;2023-11-19T07:09:43;16.27;;;4.60;;
8803;SDS011;4438;50.890;4.726;2023-11-19T07:12:09;14.87;;;5.33;;
8803;SDS011;4438;50.890;4.726;2023-11-19T07:14:35;17.67;;;4.97;;
8803;SDS011;4438;50.890;4.726;2023-11-19T07:17:02;17.47;;;4.70;;
8803;SDS011;4438;50.890;4.726;2023-11-19T07:19:28;16.03;;;4.97;;
8803;SDS011;4438;50.890;4.726;2023-11-19T07:21:54;17.37;;;5.40;;
8803;SDS011;4438;50.890;4.726;2023-11-19T07:24:21;15.50;;;4.33;;
8803;SDS011;4438;50.890;4.726;2023-11-19T07:26:47;19.33;;;5.70;;
8803;SDS011;4438;50.890;4.726;2023-11-19T07:29:14;16.27;;;5.17;;
8803;SDS011;4438;50.890;4.726;2023-11-19T07:31:43;21.90;;;5.87;;
8803;SDS011;4438;50.890;4.726;2023-11-19T07:34:09;19.10;;;5.30;;
8803;SDS011;4438;50.890;4.726;2023-11-19T07:36:36;20.30;;;5.20;;
8803;SDS011;4438;50.890;4.726;2023-11-19T07:39:03;21.07;;;5.13;;
8803;SDS011;4438;50.890;4.726;2023-11-19T07:41:30;18.47;;;5.00;;
8803;SDS011;4438;50.890;4.726;2023-11-19T07:43:56;18.03;;;4.70;;
8803;SDS011;4438;50.890;4.726;2023-11-19T07:46:22;22.33;;;5.57;;
8803;SDS011;4438;50.890;4.726;2023-11-19T07:48:50;21.20;;;5.67;;
8803;SDS011;4438;50.890;4.726;2023-11-19T07:51:16;17.67;;;5.53;;
8803;SDS011;4438;50.890;4.726;2023-11-19T07:53:42;17.27;;;5.27;;
8803;SDS011;4438;50.890;4.726;2023-11-19T07:56:09;17.77;;;4.80;;
8803;SDS011;4438;50.890;4.726;2023-11-19T07:58:35;16.63;;;4.67;;
8803;SDS011;4438;50.890;4.726;2023-11-19T08:01:01;19.30;;;5.03;;
8803;SDS011;4438;50.890;4.726;2023-11-19T08:03:27;22.43;;;5.50;;
8803;SDS011;4438;50.890;4.726;2023-11-19T08:05:57;18.77;;;6.00;;
8803;SDS011;4438;50.890;4.726;2023-11-19T08:08:23;21.33;;;5.30;;
8803;SDS011;4438;50.890;4.726;2023-11-19T08:10:50;16.43;;;4.60;;
8803;SDS011;4438;50.890;4.726;2023-11-19T08:13:21;19.20;;;5.53;;
8803;SDS011;4438;50.890;4.726;2023-11-19T08:15:47;20.33;;;5.23;;
8803;SDS011;4438;50.890;4.726;2023-11-19T08:18:13;16.77;;;4.63;;
8803;SDS011;4438;50.890;4.726;2023-11-19T08:20:39;18.93;;;5.43;;
8803;SDS011;4438;50.890;4.726;2023-11-19T08:23:06;18.33;;;5.47;;
8803;SDS011;4438;50.890;4.726;2023-11-19T08:25:32;18.03;;;4.73;;
8803;SDS011;4438;50.890;4.726;2023-11-19T08:27:59;26.23;;;5.77;;
8803;SDS011;4438;50.890;4.726;2023-11-19T08:30:25;22.67;;;5.63;;
8803;SDS011;4438;50.890;4.726;2023-11-19T08:32:52;15.47;;;4.63;;
8803;SDS011;4438;50.890;4.726;2023-11-19T08:35:18;16.13;;;4.90;;
8803;SDS011;4438;50.890;4.726;2023-11-19T08:37:44;18.37;;;5.70;;
8803;SDS011;4438;50.890;4.726;2023-11-19T08:40:11;18.23;;;5.47;;
8803;SDS011;4438;50.890;4.726;2023-11-19T08:42:40;17.27;;;4.40;;
8803;SDS011;4438;50.890;4.726;2023-11-19T08:45:06;21.73;;;5.53;;
8803;SDS011;4438;50.890;4.726;2023-11-19T08:47:35;17.10;;;4.73;;
8803;SDS011;4438;50.890;4.726;2023-11-19T08:50:02;18.53;;;5.37;;
8803;SDS011;4438;50.890;4.726;2023-11-19T08:52:29;14.30;;;4.70;;
8803;SDS011;4438;50.890;4.726;2023-11-19T08:54:55;17.47;;;5.47;;
8803;SDS011;4438;50.890;4.726;2023-11-19T08:57:22;17.13;;;5.30;;
8803;SDS011;4438;50.890;4.726;2023-11-19T08:59:48;18.70;;;5.27;;
8803;SDS011;4438;50.890;4.726;2023-11-19T09:02:14;16.07;;;4.60;;
8803;SDS011;4438;50.890;4.726;2023-11-19T09:04:40;18.93;;;5.20;;
8803;SDS011;4438;50.890;4.726;2023-11-19T09:07:06;21.97;;;5.37;;
8803;SDS011;4438;50.890;4.726;2023-11-19T09:09:34;16.27;;;4.37;;
8803;SDS011;4438;50.890;4.726;2023-11-19T09:12:01;15.07;;;4.77;;
8803;SDS011;4438;50.890;4.726;2023-11-19T09:14:28;18.83;;;5.13;;
8803;SDS011;4438;50.890;4.726;2023-11-19T09:16:55;16.77;;;4.00;;
8803;SDS011;4438;50.890;4.726;2023-11-19T09:19:21;19.87;;;5.40;;
8803;SDS011;4438;50.890;4.726;2023-11-19T09:21:47;15.60;;;4.67;;
8803;SDS011;4438;50.890;4.726;2023-11-19T09:24:14;17.33;;;4.87;;
8803;SDS011;4438;50.890;4.726;2023-11-19T09:26:40;18.00;;;5.37;;
8803;SDS011;4438;50.890;4.726;2023-11-19T09:29:10;16.87;;;5.57;;
8803;SDS011;4438;50.890;4.726;2023-11-19T09:31:37;16.83;;;5.43;;
8803;SDS011;4438;50.890;4.726;2023-11-19T09:34:04;15.37;;;4.70;;
8803;SDS011;4438;50.890;4.726;2023-11-19T09:36:30;19.00;;;4.57;;
8803;SDS011;4438;50.890;4.726;2023-11-19T09:38:56;17.63;;;4.97;;
8803;SDS011;4438;50.890;4.726;2023-11-19T09:41:25;17.70;;;4.67;;
8803;SDS011;4438;50.890;4.726;2023-11-19T09:43:53;16.90;;;4.60;;
8803;SDS011;4438;50.890;4.726;2023-11-19T09:46:19;14.00;;;4.60;;
8803;SDS011;4438;50.890;4.726;2023-11-19T09:48:45;15.60;;;4.87;;
8803;SDS011;4438;50.890;4.726;2023-11-19T09:51:13;16.50;;;4.67;;
8803;SDS011;4438;50.890;4.726;2023-11-19T09:53:39;12.80;;;3.97;;
8803;SDS011;4438;50.890;4.726;2023-11-19T09:56:06;12.83;;;4.07;;
8803;SDS011;4438;50.890;4.726;2023-11-19T09:58:35;11.60;;;4.00;;
8803;SDS011;4438;50.890;4.726;2023-11-19T10:01:01;11.77;;;4.37;;
8803;SDS011;4438;50.890;4.726;2023-11-19T10:03:35;16.80;;;4.47;;
8803;SDS011;4438;50.890;4.726;2023-11-19T10:06:08;18.90;;;4.43;;
8803;SDS011;4438;50.890;4.726;2023-11-19T10:08:38;17.20;;;4.53;;
8803;SDS011;4438;50.890;4.726;2023-11-19T10:11:05;11.27;;;4.20;;
8803;SDS011;4438;50.890;4.726;2023-11-19T10:13:31;14.97;;;4.60;;
8803;SDS011;4438;50.890;4.726;2023-11-19T10:15:57;11.33;;;4.03;;
8803;SDS011;4438;50.890;4.726;2023-11-19T10:18:23;17.03;;;4.67;;
8803;SDS011;4438;50.890;4.726;2023-11-19T10:20:50;17.50;;;4.73;;
8803;SDS011;4438;50.890;4.726;2023-11-19T10:23:16;13.63;;;4.50;;
8803;SDS011;4438;50.890;4.726;2023-11-19T10:25:42;13.10;;;3.87;;
8803;SDS011;4438;50.890;4.726;2023-11-19T10:28:08;13.47;;;4.23;;
8803;SDS011;4438;50.890;4.726;2023-11-19T10:30:34;12.90;;;4.10;;
8803;SDS011;4438;50.890;4.726;2023-11-19T10:35:31;13.60;;;4.13;;
8803;SDS011;4438;50.890;4.726;2023-11-19T10:37:58;15.63;;;4.60;;
8803;SDS011;4438;50.890;4.726;2023-11-19T10:40:37;18.70;;;5.27;;
8803;SDS011;4438;50.890;4.726;2023-11-19T10:43:04;14.90;;;4.83;;
8803;SDS011;4438;50.890;4.726;2023-11-19T10:45:32;17.77;;;5.10;;
8803;SDS011;4438;50.890;4.726;2023-11-19T10:47:59;14.17;;;4.57;;
8803;SDS011;4438;50.890;4.726;2023-11-19T10:50:26;15.70;;;4.43;;
8803;SDS011;4438;50.890;4.726;2023-11-19T10:52:56;18.77;;;4.80;;
8803;SDS011;4438;50.890;4.726;2023-11-19T10:55:32;13.00;;;4.10;;
8803;SDS011;4438;50.890;4.726;2023-11-19T10:58:03;11.43;;;4.10;;
8803;SDS011;4438;50.890;4.726;2023-11-19T11:00:32;15.03;;;4.30;;
8803;SDS011;4438;50.890;4.726;2023-11-19T11:03:00;15.50;;;4.27;;
8803;SDS011;4438;50.890;4.726;2023-11-19T11:05:27;14.73;;;4.50;;
8803;SDS011;4438;50.890;4.726;2023-11-19T11:07:55;17.77;;;4.57;;
8803;SDS011;4438;50.890;4.726;2023-11-19T11:10:23;13.23;;;4.00;;
8803;SDS011;4438;50.890;4.726;2023-11-19T11:12:51;15.83;;;4.13;;
8803;SDS011;4438;50.890;4.726;2023-11-19T11:15:24;16.13;;;4.50;;
8803;SDS011;4438;50.890;4.726;2023-11-19T11:17:54;15.30;;;4.23;;
8803;SDS011;4438;50.890;4.726;2023-11-19T11:20:23;15.00;;;4.67;;
8803;SDS011;4438;50.890;4.726;2023-11-19T11:23:04;13.23;;;4.10;;
8803;SDS011;4438;50.890;4.726;2023-11-19T11:28:13;10.00;;;3.73;;
8803;SDS011;4438;50.890;4.726;2023-11-19T11:31:06;14.80;;;4.37;;
8803;SDS011;4438;50.890;4.726;2023-11-19T11:36:07;13.47;;;5.00;;
8803;SDS011;4438;50.890;4.726;2023-11-19T11:38:37;15.23;;;4.53;;
8803;SDS011;4438;50.890;4.726;2023-11-19T11:41:16;15.53;;;4.67;;
8803;SDS011;4438;50.890;4.726;2023-11-19T11:49:01;11.47;;;4.67;;
8803;SDS011;4438;50.890;4.726;2023-11-19T11:54:30;13.77;;;4.60;;
8803;SDS011;4438;50.890;4.726;2023-11-19T12:02:16;24.23;;;4.60;;
8803;SDS011;4438;50.890;4.726;2023-11-19T12:04:46;15.20;;;4.70;;
8803;SDS011;4438;50.890;4.726;2023-11-19T12:07:14;15.97;;;4.30;;
8803;SDS011;4438;50.890;4.726;2023-11-19T12:09:41;16.30;;;4.60;;
8803;SDS011;4438;50.890;4.726;2023-11-19T12:12:11;17.27;;;4.90;;
8803;SDS011;4438;50.890;4.726;2023-11-19T12:20:02;14.60;;;4.23;;
8803;SDS011;4438;50.890;4.726;2023-11-19T12:22:28;12.40;;;4.17;;
8803;SDS011;4438;50.890;4.726;2023-11-19T12:24:54;15.03;;;4.73;;
8803;SDS011;4438;50.890;4.726;2023-11-19T12:27:21;15.70;;;4.73;;
8803;SDS011;4438;50.890;4.726;2023-11-19T12:29:47;11.87;;;4.10;;
8803;SDS011;4438;50.890;4.726;2023-11-19T12:32:14;11.80;;;3.23;;
8803;SDS011;4438;50.890;4.726;2023-11-19T12:34:40;9.60;;;3.10;;
8803;SDS011;4438;50.890;4.726;2023-11-19T12:37:06;10.40;;;3.30;;
8803;SDS011;4438;50.890;4.726;2023-11-19T12:39:33;9.57;;;3.23;;
8803;SDS011;4438;50.890;4.726;2023-11-19T12:41:59;9.10;;;3.07;;
8803;SDS011;4438;50.890;4.726;2023-11-19T12:44:25;7.87;;;3.47;;
8803;SDS011;4438;50.890;4.726;2023-11-19T12:47:04;13.70;;;4.23;;
8803;SDS011;4438;50.890;4.726;2023-11-19T12:49:32;13.23;;;3.67;;
8803;SDS011;4438;50.890;4.726;2023-11-19T12:51:58;15.00;;;3.47;;
8803;SDS011;4438;50.890;4.726;2023-11-19T12:54:31;14.60;;;3.63;;
8803;SDS011;4438;50.890;4.726;2023-11-19T12:56:57;14.13;;;4.03;;
8803;SDS011;4438;50.890;4.726;2023-11-19T12:59:24;13.77;;;4.50;;
8803;SDS011;4438;50.890;4.726;2023-11-19T13:01:57;14.93;;;3.77;;
8803;SDS011;4438;50.890;4.726;2023-11-19T13:04:27;17.43;;;4.70;;
8803;SDS011;4438;50.890;4.726;2023-11-19T13:06:53;13.97;;;4.20;;
8803;SDS011;4438;50.890;4.726;2023-11-19T13:09:24;12.90;;;4.43;;
8803;SDS011;4438;50.890;4.726;2023-11-19T13:11:50;11.60;;;4.27;;
8803;SDS011;4438;50.890;4.726;2023-11-19T13:14:17;15.03;;;4.50;;
8803;SDS011;4438;50.890;4.726;2023-11-19T13:16:44;12.53;;;3.83;;
8803;SDS011;4438;50.890;4.726;2023-11-19T13:19:14;11.37;;;4.00;;
8803;SDS011;4438;50.890;4.726;2023-11-19T13:21:44;14.30;;;4.50;;
8803;SDS011;4438;50.890;4.726;2023-11-19T13:24:12;13.57;;;4.80;;
8803;SDS011;4438;50.890;4.726;2023-11-19T13:26:38;12.60;;;4.03;;
8803;SDS011;4438;50.890;4.726;2023-11-19T13:29:05;16.03;;;4.43;;
8803;SDS011;4438;50.890;4.726;2023-11-19T13:31:31;14.33;;;4.23;;
8803;SDS011;4438;50.890;4.726;2023-11-19T13:33:57;13.53;;;4.63;;
8803;SDS011;4438;50.890;4.726;2023-11-19T13:36:24;13.07;;;4.57;;
8803;SDS011;4438;50.890;4.726;2023-11-19T13:38:51;15.20;;;4.33;;
8803;SDS011;4438;50.890;4.726;2023-11-19T13:41:23;16.57;;;4.43;;
8803;SDS011;4438;50.890;4.726;2023-11-19T13:43:50;14.47;;;3.73;;
8803;SDS011;4438;50.890;4.726;2023-11-19T13:46:16;13.93;;;3.90;;
8803;SDS011;4438;50.890;4.726;2023-11-19T13:48:42;13.37;;;3.60;;
8803;SDS011;4438;50.890;4.726;2023-11-19T13:51:08;12.63;;;4.23;;
8803;SDS011;4438;50.890;4.726;2023-11-19T13:53:35;15.17;;;4.37;;
8803;SDS011;4438;50.890;4.726;2023-11-19T13:56:02;9.53;;;3.60;;
8803;SDS011;4438;50.890;4.726;2023-11-19T13:58:28;16.60;;;3.90;;
8803;SDS011;4438;50.890;4.726;2023-11-19T14:00:54;13.77;;;3.93;;
8803;SDS011;4438;50.890;4.726;2023-11-19T14:03:20;12.17;;;3.87;;
8803;SDS011;4438;50.890;4.726;2023-11-19T14:05:47;12.47;;;4.40;;
8803;SDS011;4438;50.890;4.726;2023-11-19T14:08:14;12.87;;;4.43;;
8803;SDS011;4438;50.890;4.726;2023-11-19T14:10:40;15.47;;;5.23;;
8803;SDS011;4438;50.890;4.726;2023-11-19T14:13:07;16.17;;;4.30;;
8803;SDS011;4438;50.890;4.726;2023-11-19T14:15:33;13.50;;;4.57;;
8803;SDS011;4438;50.890;4.726;2023-11-19T14:18:00;14.07;;;4.43;;
8803;SDS011;4438;50.890;4.726;2023-11-19T14:20:26;15.30;;;4.63;;
8803;SDS011;4438;50.890;4.726;2023-11-19T14:22:53;11.37;;;4.20;;
8803;SDS011;4438;50.890;4.726;2023-11-19T14:25:19;11.90;;;4.47;;
8803;SDS011;4438;50.890;4.726;2023-11-19T14:27:46;14.87;;;5.17;;
8803;SDS011;4438;50.890;4.726;2023-11-19T14:30:12;15.67;;;4.53;;
8803;SDS011;4438;50.890;4.726;2023-11-19T14:32:39;17.43;;;5.30;;
8803;SDS011;4438;50.890;4.726;2023-11-19T14:35:06;16.73;;;5.13;;
8803;SDS011;4438;50.890;4.726;2023-11-19T14:37:32;13.63;;;4.90;;
8803;SDS011;4438;50.890;4.726;2023-11-19T14:39:59;11.83;;;4.43;;
8803;SDS011;4438;50.890;4.726;2023-11-19T14:42:25;16.77;;;4.90;;
8803;SDS011;4438;50.890;4.726;2023-11-19T14:44:52;17.73;;;5.27;;
8803;SDS011;4438;50.890;4.726;2023-11-19T14:47:18;13.10;;;4.37;;
8803;SDS011;4438;50.890;4.726;2023-11-19T14:49:44;20.43;;;5.70;;
8803;SDS011;4438;50.890;4.726;2023-11-19T14:52:10;15.87;;;4.40;;
8803;SDS011;4438;50.890;4.726;2023-11-19T14:54:37;12.93;;;4.97;;
8803;SDS011;4438;50.890;4.726;2023-11-19T14:57:06;18.23;;;5.20;;
8803;SDS011;4438;50.890;4.726;2023-11-19T14:59:36;13.43;;;4.70;;
8803;SDS011;4438;50.890;4.726;2023-11-19T15:02:02;17.87;;;5.37;;
8803;SDS011;4438;50.890;4.726;2023-11-19T15:04:28;18.80;;;5.10;;
8803;SDS011;4438;50.890;4.726;2023-11-19T15:06:58;16.13;;;5.27;;
8803;SDS011;4438;50.890;4.726;2023-11-19T15:09:24;15.60;;;5.43;;
8803;SDS011;4438;50.890;4.726;2023-11-19T15:11:51;15.10;;;4.67;;
8803;SDS011;4438;50.890;4.726;2023-11-19T15:14:19;18.93;;;4.83;;
8803;SDS011;4438;50.890;4.726;2023-11-19T15:16:45;17.07;;;5.07;;
8803;SDS011;4438;50.890;4.726;2023-11-19T15:19:12;16.60;;;4.90;;
8803;SDS011;4438;50.890;4.726;2023-11-19T15:21:39;20.83;;;5.37;;
8803;SDS011;4438;50.890;4.726;2023-11-19T15:24:05;19.87;;;4.73;;
8803;SDS011;4438;50.890;4.726;2023-11-19T15:26:35;15.53;;;4.83;;
8803;SDS011;4438;50.890;4.726;2023-11-19T15:29:02;15.73;;;5.20;;